createdAt,value
2019-05-05T00:02:07.729Z,90.90
2019-05-05T00:04:56.117Z,91.40
2019-05-05T00:07:30.712Z,91.00
2019-05-05T00:10:01.328Z,90.80
2019-05-05T00:12:55.047Z,91.10
2019-05-05T00:15:47.717Z,91.30
2019-05-05T00:18:21.051Z,91.30
2019-05-05T00:20:51.552Z,92.00
2019-05-05T00:23:21.998Z,92.20
2019-05-05T00:25:52.439Z,92.50
2019-05-05T00:28:24.750Z,92.00
2019-05-05T00:30:55.458Z,91.90
2019-05-05T00:33:25.910Z,91.40
2019-05-05T00:35:56.818Z,91.30
2019-05-05T00:38:27.214Z,91.00
2019-05-05T00:40:57.677Z,91.10
2019-05-05T00:43:28.244Z,91.80
2019-05-05T00:46:04.709Z,91.40
2019-05-05T00:48:41.454Z,91.10
2019-05-05T00:51:11.882Z,90.90
2019-05-05T00:53:42.338Z,90.50
2019-05-05T00:56:14.437Z,90.80
2019-05-05T00:58:50.606Z,91.70
2019-05-05T01:01:44.837Z,92.00
2019-05-05T01:04:17.972Z,91.80
2019-05-05T01:06:48.447Z,91.10
2019-05-05T01:09:22.251Z,90.20
2019-05-05T01:11:54.925Z,90.00
2019-05-05T01:14:25.064Z,90.50
2019-05-05T01:16:55.628Z,91.20
2019-05-05T01:19:26.071Z,91.70
2019-05-05T01:21:56.508Z,91.10
2019-05-05T01:24:26.961Z,91.00
2019-05-05T01:26:57.421Z,90.50
2019-05-05T01:29:27.866Z,91.10
2019-05-05T01:32:00.049Z,91.80
2019-05-05T01:34:34.853Z,92.30
2019-05-05T01:37:11.877Z,92.40
2019-05-05T01:39:49.917Z,92.60
2019-05-05T01:42:20.511Z,92.10
2019-05-05T01:44:51.140Z,92.40
2019-05-05T01:47:21.700Z,92.40
2019-05-05T01:49:54.345Z,92.70
2019-05-05T01:52:25.456Z,92.10
2019-05-05T01:54:56.048Z,92.40
2019-05-05T01:57:27.408Z,92.40
2019-05-05T01:59:58.711Z,92.60
2019-05-05T02:02:29.188Z,92.90
2019-05-05T02:04:59.668Z,93.10
2019-05-05T02:07:30.108Z,92.40
2019-05-05T02:10:00.502Z,92.50
2019-05-05T02:12:30.955Z,92.30
2019-05-05T02:15:01.433Z,92.10
2019-05-05T02:17:31.872Z,92.20
2019-05-05T02:20:02.257Z,91.60
2019-05-05T02:22:32.720Z,91.40
2019-05-05T02:25:04.243Z,91.50
2019-05-05T02:27:34.864Z,91.20
2019-05-05T02:30:26.706Z,91.00
2019-05-05T02:33:06.606Z,91.00
2019-05-05T02:35:37.030Z,90.50
2019-05-05T02:38:07.582Z,90.20
2019-05-05T02:40:38.487Z,89.20
2019-05-05T02:43:10.009Z,89.90
2019-05-05T02:45:58.190Z,88.80
2019-05-05T02:48:29.637Z,88.60
2019-05-05T02:51:02.659Z,87.30
2019-05-05T02:53:39.596Z,87.60
2019-05-05T02:56:16.905Z,88.70
2019-05-05T02:58:53.600Z,88.10
2019-05-05T03:01:36.434Z,89.40
2019-05-05T03:04:08.486Z,88.50
2019-05-05T03:06:43.843Z,87.60
2019-05-05T03:09:16.319Z,87.40
2019-05-05T03:11:49.802Z,88.40
2019-05-05T03:14:23.867Z,89.30
2019-05-05T03:16:55.887Z,90.30
2019-05-05T03:19:28.021Z,90.90
2019-05-05T03:21:59.239Z,91.20
2019-05-05T03:24:30.089Z,91.00
2019-05-05T03:27:01.143Z,91.50
2019-05-05T03:29:33.587Z,90.10
2019-05-05T03:32:05.784Z,90.70
2019-05-05T03:34:37.870Z,90.10
2019-05-05T03:37:09.302Z,90.80
2019-05-05T03:39:44.413Z,90.60
2019-05-05T03:42:30.498Z,91.10
2019-05-05T03:45:11.866Z,90.40
2019-05-05T03:47:44.070Z,90.60
2019-05-05T03:50:15.333Z,90.80
2019-05-05T03:52:46.900Z,91.10
2019-05-05T03:55:17.403Z,91.60
2019-05-05T03:57:48.244Z,92.20
2019-05-05T04:00:43.721Z,92.50
2019-05-05T04:03:14.710Z,91.10
2019-05-05T04:05:49.826Z,90.10
2019-05-05T04:08:20.632Z,89.20
2019-05-05T04:10:51.192Z,86.00
2019-05-05T04:13:24.171Z,85.60
2019-05-05T04:16:19.345Z,85.70
2019-05-05T04:18:54.453Z,84.90
2019-05-05T04:21:33.491Z,86.20
2019-05-05T04:23:57.075Z,87.10
2019-05-05T04:26:27.478Z,85.70
2019-05-05T04:28:58.031Z,85.50
2019-05-05T04:31:28.640Z,85.70
2019-05-05T04:33:59.050Z,84.90
2019-05-05T04:36:29.528Z,84.50
2019-05-05T04:38:59.942Z,85.50
2019-05-05T04:41:30.353Z,85.10
2019-05-05T04:44:00.859Z,85.00
2019-05-05T04:46:33.712Z,85.70
2019-05-05T04:49:23.383Z,85.40
2019-05-05T04:51:54.759Z,86.10
2019-05-05T04:54:30.079Z,87.90
2019-05-05T04:57:00.492Z,88.20
2019-05-05T04:59:30.931Z,88.10
2019-05-05T05:02:05.388Z,87.00
2019-05-05T05:04:50.430Z,87.80
2019-05-05T05:07:21.050Z,86.30
2019-05-05T05:09:51.461Z,87.20
2019-05-05T05:12:23.752Z,86.70
2019-05-05T05:14:54.632Z,85.50
2019-05-05T05:17:33.832Z,85.70
2019-05-05T05:20:04.797Z,86.20
2019-05-05T05:22:35.241Z,86.80
2019-05-05T05:25:05.738Z,84.70
2019-05-05T05:27:36.165Z,84.30
2019-05-05T05:30:07.342Z,85.40
2019-05-05T05:32:39.822Z,82.00
2019-05-05T05:35:09.928Z,82.00
2019-05-05T05:37:40.385Z,82.80
2019-05-05T05:40:17.447Z,82.40
2019-05-05T05:42:47.933Z,81.80
2019-05-05T05:45:41.277Z,81.20
2019-05-05T05:48:16.622Z,82.00
2019-05-05T05:50:53.673Z,81.70
2019-05-05T05:53:24.596Z,82.50
2019-05-05T05:55:55.036Z,82.20
2019-05-05T05:58:25.514Z,82.50
2019-05-05T06:00:57.363Z,82.60
2019-05-05T06:03:28.697Z,84.00
2019-05-05T06:05:59.186Z,81.30
2019-05-05T06:08:29.982Z,80.60
2019-05-05T06:11:00.602Z,81.90
2019-05-05T06:13:31.073Z,81.00
2019-05-05T06:16:01.489Z,77.50
2019-05-05T06:18:31.927Z,77.30
2019-05-05T06:21:04.282Z,76.60
2019-05-05T06:23:34.650Z,76.50
2019-05-05T06:26:06.836Z,80.10
2019-05-05T06:28:37.241Z,79.70
2019-05-05T06:31:07.710Z,83.40
2019-05-05T06:33:38.164Z,84.60
2019-05-05T06:36:08.665Z,86.50
2019-05-05T06:38:39.056Z,88.10
2019-05-05T06:41:28.084Z,90.10
2019-05-05T06:44:16.087Z,90.40
2019-05-05T06:47:01.430Z,90.30
2019-05-05T06:49:31.856Z,90.10
2019-05-05T06:52:04.051Z,88.60
2019-05-05T06:54:34.947Z,87.60
2019-05-05T06:57:05.625Z,85.20
2019-05-05T06:59:36.122Z,83.20
2019-05-05T07:02:08.038Z,85.20
2019-05-05T07:04:38.659Z,85.40
2019-05-05T07:07:09.187Z,85.60
2019-05-05T07:09:39.671Z,84.10
2019-05-05T07:12:10.168Z,82.60
2019-05-05T07:14:40.622Z,83.10
2019-05-05T07:17:11.089Z,83.10
2019-05-05T07:19:41.551Z,83.10
2019-05-05T07:22:14.015Z,83.90
2019-05-05T07:24:44.320Z,84.10
2019-05-05T07:27:14.717Z,76.90
2019-05-05T07:29:45.278Z,76.30
2019-05-05T07:32:15.849Z,74.60
2019-05-05T07:35:17.303Z,70.60
2019-05-05T07:37:47.843Z,67.90
2019-05-05T07:40:18.433Z,64.20
2019-05-05T07:42:50.168Z,64.00
2019-05-05T07:45:25.755Z,67.10
2019-05-05T07:49:24.907Z,63.20
2019-05-05T07:53:17.964Z,62.70
2019-05-05T07:55:59.769Z,65.80
2019-05-05T07:58:34.513Z,61.90
2019-05-05T08:01:19.224Z,63.80
2019-05-05T08:04:20.357Z,59.50
2019-05-05T08:09:56.374Z,57.30
2019-05-05T08:12:37.004Z,61.20
2019-05-05T08:15:34.435Z,64.20
2019-05-05T08:18:18.019Z,69.80
2019-05-05T08:21:04.405Z,74.30
2019-05-05T08:24:04.537Z,76.90
2019-05-05T08:38:17.434Z,74.50
2019-05-05T08:44:26.046Z,70.00
2019-05-05T08:47:04.441Z,70.30
2019-05-05T08:54:57.955Z,67.40
2019-05-05T08:57:42.132Z,64.50
2019-05-05T09:01:23.767Z,64.50
2019-05-05T09:03:55.283Z,62.60
2019-05-05T09:06:37.706Z,58.10
2019-05-05T09:09:14.265Z,60.70
2019-05-05T09:12:30.503Z,61.20
2019-05-05T09:15:24.366Z,58.80
2019-05-05T09:17:55.329Z,59.00
2019-05-05T09:20:38.263Z,58.50
2019-05-05T09:23:19.238Z,57.90
2019-05-05T09:26:35.753Z,57.70
2019-05-05T09:29:24.336Z,54.70
2019-05-05T09:32:01.141Z,54.80
2019-05-05T09:34:39.133Z,55.40
2019-05-05T09:37:09.681Z,56.90
2019-05-05T09:39:43.657Z,58.60
2019-05-05T09:42:19.159Z,59.20
2019-05-05T09:44:58.204Z,60.00
2019-05-05T09:48:16.172Z,60.20
2019-05-05T09:51:29.576Z,59.50
2019-05-05T09:57:24.203Z,58.90
2019-05-05T10:00:18.580Z,56.00
2019-05-05T10:04:14.015Z,54.30
2019-05-05T10:07:44.029Z,55.10
2019-05-05T10:10:56.886Z,54.40
2019-05-05T10:13:27.388Z,54.90
2019-05-05T10:16:00.680Z,54.30
2019-05-05T10:18:35.924Z,55.20
2019-05-05T10:24:50.904Z,49.60
2019-05-05T10:27:21.405Z,45.80
2019-05-05T10:29:52.025Z,45.30
2019-05-05T10:32:24.460Z,46.70
2019-05-05T10:35:04.454Z,47.00
2019-05-05T10:37:36.135Z,44.80
2019-05-05T10:40:33.874Z,43.00
2019-05-05T10:43:04.773Z,42.90
2019-05-05T10:45:38.123Z,45.80
2019-05-05T10:48:11.092Z,45.70
2019-05-05T10:50:41.577Z,43.70
2019-05-05T10:53:13.657Z,43.40
2019-05-05T10:55:45.111Z,41.50
2019-05-05T10:58:17.973Z,40.00
2019-05-05T11:00:59.849Z,41.40
2019-05-05T11:04:24.315Z,43.10
2019-05-05T11:06:55.085Z,42.30
2019-05-05T11:09:27.263Z,40.70
2019-05-05T11:12:05.050Z,41.10
2019-05-05T11:14:35.543Z,40.60
2019-05-05T11:17:06.559Z,37.20
2019-05-05T11:19:37.449Z,38.90
2019-05-05T11:22:07.894Z,37.70
2019-05-05T11:24:38.418Z,38.50
2019-05-05T11:27:08.949Z,41.10
2019-05-05T11:29:58.407Z,41.50
2019-05-05T11:32:46.721Z,41.50
2019-05-05T11:35:18.755Z,40.10
2019-05-05T11:37:49.323Z,40.50
2019-05-05T11:40:31.802Z,41.20
2019-05-05T11:43:03.731Z,41.80
2019-05-05T11:45:34.568Z,39.60
2019-05-05T11:48:05.339Z,41.60
2019-05-05T11:50:35.812Z,40.20
2019-05-05T11:53:14.363Z,41.90
2019-05-05T11:55:51.438Z,42.90
2019-05-05T11:58:24.695Z,43.50
2019-05-05T12:00:54.868Z,43.70
2019-05-05T12:03:25.382Z,43.60
2019-05-05T12:05:56.186Z,44.30
2019-05-05T12:08:27.039Z,45.30
2019-05-05T12:11:04.473Z,46.40
2019-05-05T12:13:34.469Z,46.70
2019-05-05T12:16:07.007Z,46.60
2019-05-05T12:18:37.495Z,45.80
2019-05-05T12:21:08.689Z,48.00
2019-05-05T12:23:39.232Z,48.90
2019-05-05T12:26:31.833Z,47.60
2019-05-05T12:29:24.646Z,48.80
2019-05-05T12:31:55.797Z,50.60
2019-05-05T12:34:27.429Z,50.10
2019-05-05T12:36:58.389Z,49.40
2019-05-05T12:39:28.986Z,50.50
2019-05-05T12:42:00.469Z,51.20
2019-05-05T12:44:38.062Z,51.00
2019-05-05T12:47:36.412Z,49.30
2019-05-05T12:50:07.811Z,48.50
2019-05-05T12:52:39.385Z,46.50
2019-05-05T12:55:10.753Z,48.70
2019-05-05T12:57:43.500Z,47.80
2019-05-05T13:00:14.693Z,48.00
2019-05-05T13:02:45.538Z,52.80
2019-05-05T13:05:16.063Z,57.60
2019-05-05T13:07:46.583Z,58.80
2019-05-05T13:10:24.235Z,62.40
2019-05-05T13:12:54.470Z,62.00
2019-05-05T13:15:24.942Z,61.50
2019-05-05T13:17:56.470Z,61.20
2019-05-05T13:20:33.978Z,61.40
2019-05-05T13:23:34.024Z,59.40
2019-05-05T13:26:26.537Z,60.00
2019-05-05T13:28:57.012Z,59.30
2019-05-05T13:31:27.481Z,58.30
2019-05-05T13:33:58.153Z,57.00
2019-05-05T13:36:29.084Z,56.60
2019-05-05T13:38:59.501Z,57.10
2019-05-05T13:41:30.036Z,54.20
2019-05-05T13:44:04.365Z,53.90
2019-05-05T13:46:35.516Z,51.90
2019-05-05T13:49:24.043Z,47.30
2019-05-05T13:51:54.650Z,48.90
2019-05-05T13:54:25.238Z,46.80
2019-05-05T13:56:55.768Z,44.20
2019-05-05T13:59:26.189Z,44.60
2019-05-05T14:01:56.803Z,45.70
2019-05-05T14:04:27.278Z,46.50
2019-05-05T14:06:57.941Z,46.30
2019-05-05T14:09:28.649Z,48.70
2019-05-05T14:11:59.248Z,48.60
2019-05-05T14:14:29.729Z,48.80
2019-05-05T14:17:00.577Z,49.30
2019-05-05T14:19:31.260Z,48.50
2019-05-05T14:22:04.224Z,46.40
2019-05-05T14:24:44.441Z,46.80
2019-05-05T14:27:15.566Z,48.90
2019-05-05T14:30:04.041Z,45.70
2019-05-05T14:32:37.415Z,45.40
2019-05-05T14:35:20.116Z,45.40
2019-05-05T14:37:54.026Z,45.40
2019-05-05T14:40:24.579Z,45.10
2019-05-05T14:42:55.146Z,44.50
2019-05-05T14:45:25.752Z,46.30
2019-05-05T14:47:56.779Z,47.10
2019-05-05T14:50:27.415Z,46.70
2019-05-05T14:52:58.488Z,46.70
2019-05-05T14:55:29.630Z,47.10
2019-05-05T14:58:00.923Z,46.50
2019-05-05T15:00:33.550Z,46.50
2019-05-05T15:03:04.164Z,47.30
2019-05-05T15:05:44.387Z,47.20
2019-05-05T15:08:36.342Z,46.50
2019-05-05T15:11:25.988Z,46.00
2019-05-05T15:13:56.524Z,46.30
2019-05-05T15:16:27.059Z,47.40
2019-05-05T15:18:57.625Z,50.10
2019-05-05T15:21:29.283Z,53.20
2019-05-05T15:23:59.770Z,57.70
2019-05-05T15:26:30.337Z,65.20
2019-05-05T15:29:01.747Z,65.50
2019-05-05T15:31:34.193Z,67.80
2019-05-05T15:34:05.572Z,67.70
2019-05-05T15:36:36.712Z,65.60
2019-05-05T15:39:09.042Z,60.60
2019-05-05T15:41:41.735Z,58.40
2019-05-05T15:44:13.453Z,60.70
2019-05-05T15:46:44.356Z,60.20
2019-05-05T15:49:15.194Z,56.20
2019-05-05T15:51:46.130Z,56.40
2019-05-05T15:54:17.283Z,56.30
2019-05-05T15:56:47.929Z,56.80
2019-05-05T15:59:18.545Z,55.90
2019-05-05T16:01:49.173Z,56.80
2019-05-05T16:04:19.824Z,56.90
2019-05-05T16:06:50.478Z,57.40
2019-05-05T16:09:21.034Z,56.80
2019-05-05T16:12:07.750Z,55.20
2019-05-05T16:14:53.865Z,55.50
2019-05-05T16:17:55.948Z,54.50
2019-05-05T16:20:38.938Z,55.50
2019-05-05T16:23:43.626Z,55.90
2019-05-05T16:26:14.266Z,55.60
2019-05-05T16:28:46.257Z,55.20
2019-05-05T16:31:37.571Z,55.10
2019-05-05T16:34:27.439Z,55.10
2019-05-05T16:37:27.789Z,55.00
2019-05-05T16:40:06.357Z,54.30
2019-05-05T16:42:56.385Z,54.30
2019-05-05T16:46:20.444Z,55.30
2019-05-05T16:49:14.044Z,55.30
2019-05-05T16:51:54.621Z,55.10
2019-05-05T16:54:33.652Z,55.80
2019-05-05T16:57:05.817Z,56.10
2019-05-05T16:59:36.417Z,56.00
2019-05-05T17:02:06.946Z,55.70
2019-05-05T17:04:37.519Z,55.90
2019-05-05T17:07:08.035Z,56.50
2019-05-05T17:09:38.528Z,56.50
2019-05-05T17:12:13.912Z,56.10
2019-05-05T17:15:04.479Z,54.90
2019-05-05T17:17:49.594Z,54.40
2019-05-05T17:20:24.472Z,54.00
2019-05-05T17:23:06.822Z,51.90
2019-05-05T17:25:37.313Z,52.40
2019-05-05T17:28:08.310Z,53.20
2019-05-05T17:30:39.172Z,53.00
2019-05-05T17:33:09.975Z,53.40
2019-05-05T17:35:40.892Z,53.70
2019-05-05T17:38:14.954Z,54.60
2019-05-05T17:41:23.602Z,53.30
2019-05-05T17:44:16.746Z,52.00
2019-05-05T17:46:56.741Z,50.30
2019-05-05T17:49:34.849Z,50.00
2019-05-05T17:52:34.329Z,50.70
2019-05-05T17:55:24.309Z,50.30
2019-05-05T17:58:05.602Z,50.50
2019-05-05T18:00:43.618Z,51.10
2019-05-05T18:03:16.137Z,50.90
2019-05-05T18:06:14.348Z,51.10
2019-05-05T18:08:53.805Z,51.30
2019-05-05T18:11:44.075Z,50.30
2019-05-05T18:14:24.720Z,50.70
2019-05-05T18:16:55.649Z,50.40
2019-05-05T18:19:26.407Z,50.30
2019-05-05T18:21:57.094Z,50.20
2019-05-05T18:24:27.659Z,50.70
2019-05-05T18:26:58.232Z,50.90
2019-05-05T18:29:28.706Z,51.00
2019-05-05T18:31:59.145Z,50.70
2019-05-05T18:34:29.784Z,51.60
2019-05-05T18:37:00.959Z,51.40
2019-05-05T18:39:31.516Z,51.50
2019-05-05T18:42:10.656Z,51.40
2019-05-05T18:44:46.155Z,51.70
2019-05-05T18:47:18.887Z,51.70
2019-05-05T18:49:49.594Z,52.40
2019-05-05T18:52:20.183Z,52.70
2019-05-05T18:54:50.789Z,53.40
2019-05-05T18:57:21.330Z,54.30
2019-05-05T18:59:54.010Z,55.30
2019-05-05T19:02:44.242Z,55.90
2019-05-05T19:05:25.934Z,55.80
2019-05-05T19:08:08.274Z,56.30
2019-05-05T19:10:38.929Z,56.90
2019-05-05T19:13:09.763Z,56.00
2019-05-05T19:15:40.403Z,56.30
2019-05-05T19:18:11.154Z,56.20
2019-05-05T19:20:50.758Z,56.30
2019-05-05T19:23:21.297Z,57.10
2019-05-05T19:25:55.851Z,56.80
2019-05-05T19:28:25.024Z,56.10
2019-05-05T19:30:55.938Z,55.50
2019-05-05T19:33:26.440Z,54.50
2019-05-05T19:35:57.215Z,54.20
2019-05-05T19:38:27.749Z,54.50
2019-05-05T19:40:58.625Z,54.70
2019-05-05T19:43:47.960Z,55.20
2019-05-05T19:47:09.190Z,54.80
2019-05-05T19:49:41.782Z,55.10
2019-05-05T19:52:13.608Z,55.10
2019-05-05T19:54:49.428Z,55.70
2019-05-05T19:57:20.000Z,55.50
2019-05-05T19:59:51.273Z,55.70
2019-05-05T20:02:23.601Z,57.30
2019-05-05T20:04:54.482Z,57.40
2019-05-05T20:07:25.031Z,57.00
2019-05-05T20:09:55.644Z,56.40
2019-05-05T20:12:26.231Z,56.70
2019-05-05T20:14:57.549Z,57.50
2019-05-05T20:17:33.711Z,58.20
2019-05-05T20:20:05.417Z,58.70
2019-05-05T20:22:36.307Z,58.90
2019-05-05T20:25:07.492Z,58.30
2019-05-05T20:27:37.988Z,57.50
2019-05-05T20:30:09.827Z,57.40
2019-05-05T20:32:46.329Z,57.50
2019-05-05T20:35:33.930Z,57.20
2019-05-05T20:38:11.102Z,57.20
2019-05-05T20:40:44.309Z,57.20
2019-05-05T20:43:15.331Z,56.30
2019-05-05T20:45:46.586Z,56.40
2019-05-05T20:48:17.612Z,56.20
2019-05-05T20:50:48.624Z,56.40
2019-05-05T20:53:19.151Z,56.00
2019-05-05T20:55:49.805Z,55.80
2019-05-05T20:58:20.490Z,55.30
2019-05-05T21:01:33.980Z,56.00
2019-05-05T21:12:48.838Z,56.10
2019-05-05T21:29:00.075Z,58.60
2019-05-05T21:31:30.945Z,58.40
2019-05-05T21:34:01.511Z,59.60
2019-05-05T21:36:33.656Z,59.40
2019-05-05T21:39:06.695Z,60.00
2019-05-05T21:41:37.646Z,60.00
2019-05-05T21:44:09.241Z,60.80
2019-05-05T21:46:43.822Z,60.80
2019-05-05T21:49:15.030Z,61.90
2019-05-05T21:52:08.133Z,60.50
2019-05-05T21:54:44.108Z,61.20
2019-05-05T21:57:34.428Z,61.60
2019-05-05T22:00:08.130Z,61.40
2019-05-05T22:02:39.119Z,60.70
2019-05-05T22:05:09.875Z,60.80
2019-05-05T22:07:40.798Z,60.30
2019-05-05T22:10:13.487Z,59.80
2019-05-05T22:12:44.709Z,60.20
2019-05-05T22:15:15.777Z,60.00
2019-05-05T22:17:46.258Z,59.80
2019-05-05T22:20:23.237Z,59.50
2019-05-05T22:22:54.286Z,59.50
2019-05-05T22:25:24.783Z,58.90
2019-05-05T22:27:55.283Z,59.50
2019-05-05T22:30:26.595Z,58.80
2019-05-05T22:32:57.000Z,59.00
2019-05-05T22:35:27.840Z,59.20
2019-05-05T22:37:58.260Z,59.10
2019-05-05T22:40:28.808Z,59.00
2019-05-05T22:42:59.297Z,59.10
2019-05-05T22:45:29.717Z,59.30
2019-05-05T22:48:00.129Z,59.20
2019-05-05T22:50:30.613Z,59.60
2019-05-05T22:53:01.150Z,60.10
2019-05-05T22:55:31.592Z,60.50
2019-05-05T22:58:04.036Z,60.70
2019-05-05T23:00:34.890Z,61.10
2019-05-05T23:03:13.686Z,61.20
2019-05-05T23:05:50.440Z,61.20
2019-05-05T23:08:20.917Z,61.40
2019-05-05T23:10:51.374Z,61.20
2019-05-05T23:13:21.868Z,60.90
2019-05-05T23:15:59.526Z,61.30
2019-05-05T23:18:30.020Z,61.20
2019-05-05T23:21:15.628Z,61.50
2019-05-05T23:24:07.448Z,63.10
2019-05-05T23:26:39.146Z,63.20
2019-05-05T23:29:09.578Z,63.60
2019-05-05T23:31:40.078Z,64.10
2019-05-05T23:34:10.668Z,64.60
2019-05-05T23:36:41.116Z,64.50
2019-05-05T23:39:13.469Z,64.10
2019-05-05T23:41:43.786Z,64.30
2019-05-05T23:44:14.469Z,64.20
2019-05-05T23:46:45.345Z,65.80
2019-05-05T23:49:15.791Z,66.60
2019-05-05T23:51:46.211Z,66.70
2019-05-05T23:54:16.689Z,66.40
2019-05-05T23:56:47.135Z,66.30
2019-05-05T23:59:17.559Z,66.70
